createdAt,value
2023-03-21T00:01:12.393Z,47.27
2023-03-21T00:03:51.369Z,46.00
2023-03-21T00:06:29.080Z,45.93
2023-03-21T00:09:09.477Z,46.63
2023-03-21T00:11:47.091Z,47.30
2023-03-21T00:14:25.212Z,44.87
2023-03-21T00:17:01.781Z,44.77
2023-03-21T00:19:41.114Z,47.00
2023-03-21T00:22:22.062Z,44.93
2023-03-21T00:25:01.624Z,43.60
2023-03-21T00:28:00.883Z,44.93
2023-03-21T00:30:34.409Z,46.43
2023-03-21T00:33:22.024Z,43.80
2023-03-21T00:36:06.634Z,44.23
2023-03-21T00:38:48.060Z,44.33
2023-03-21T00:41:41.461Z,44.77
2023-03-21T00:44:27.116Z,44.03
2023-03-21T00:47:07.859Z,45.10
2023-03-21T00:49:49.160Z,45.20
2023-03-21T00:52:40.324Z,43.40
2023-03-21T00:55:28.446Z,44.83
2023-03-21T00:58:07.247Z,45.83
2023-03-21T01:00:45.156Z,46.93
2023-03-21T01:03:25.547Z,47.40
2023-03-21T01:06:14.676Z,45.43
2023-03-21T01:08:54.944Z,49.23
2023-03-21T01:11:36.563Z,48.77
2023-03-21T01:14:22.633Z,50.93
2023-03-21T01:17:00.086Z,50.47
2023-03-21T01:19:51.117Z,53.90
2023-03-21T01:22:34.653Z,50.90
2023-03-21T01:25:22.416Z,52.20
2023-03-21T01:28:04.520Z,53.13
2023-03-21T01:30:43.825Z,55.57
2023-03-21T01:33:22.310Z,53.43
2023-03-21T01:36:11.823Z,54.67
2023-03-21T01:38:51.181Z,54.20
2023-03-21T01:41:46.984Z,54.37
2023-03-21T01:44:32.933Z,53.33
2023-03-21T01:47:12.878Z,55.00
2023-03-21T01:50:03.241Z,55.77
2023-03-21T01:53:05.814Z,55.83
2023-03-21T01:55:46.373Z,54.60
2023-03-21T01:58:43.267Z,56.33
2023-03-21T02:01:52.300Z,56.17
2023-03-21T02:04:36.468Z,56.97
2023-03-21T02:07:31.202Z,54.30
2023-03-21T02:10:23.615Z,55.00
2023-03-21T02:13:11.128Z,54.47
2023-03-21T02:15:55.912Z,55.97
2023-03-21T02:18:47.457Z,56.27
2023-03-21T02:21:59.160Z,52.37
2023-03-21T02:25:22.139Z,54.07
2023-03-21T02:28:03.284Z,49.73
2023-03-21T02:31:05.805Z,50.70
2023-03-21T02:34:16.355Z,50.27
2023-03-21T02:37:10.165Z,49.70
2023-03-21T02:40:02.329Z,51.77
2023-03-21T02:42:54.717Z,52.77
2023-03-21T02:45:38.309Z,53.67
2023-03-21T02:48:28.066Z,51.30
2023-03-21T02:51:13.519Z,51.57
2023-03-21T02:54:24.871Z,49.50
2023-03-21T02:57:00.798Z,48.70
2023-03-21T02:59:51.573Z,49.17
2023-03-21T03:02:44.524Z,49.27
2023-03-21T03:05:25.281Z,50.27
2023-03-21T03:08:15.097Z,51.10
2023-03-21T03:11:08.322Z,50.30
2023-03-21T03:14:38.393Z,51.40
2023-03-21T03:17:28.768Z,49.80
2023-03-21T03:20:27.377Z,49.17
2023-03-21T03:23:18.099Z,48.63
2023-03-21T03:26:06.278Z,52.17
2023-03-21T03:28:51.720Z,48.90
2023-03-21T03:31:34.821Z,50.07
2023-03-21T03:34:14.460Z,47.90
2023-03-21T03:36:57.977Z,48.13
2023-03-21T03:39:41.036Z,51.57
2023-03-21T03:42:28.454Z,50.07
2023-03-21T03:45:15.573Z,50.63
2023-03-21T03:47:59.508Z,50.37
2023-03-21T03:50:45.249Z,51.77
2023-03-21T03:53:32.510Z,52.10
2023-03-21T03:56:15.947Z,50.30
2023-03-21T03:58:58.403Z,50.43
2023-03-21T04:01:52.539Z,52.30
2023-03-21T04:04:30.870Z,51.77
2023-03-21T04:07:08.132Z,55.20
2023-03-21T04:09:47.793Z,49.13
2023-03-21T04:12:30.959Z,49.03
2023-03-21T04:15:26.404Z,52.53
2023-03-21T04:18:11.078Z,50.63
2023-03-21T04:20:50.153Z,52.47
2023-03-21T04:23:37.660Z,52.97
2023-03-21T04:26:22.640Z,52.53
2023-03-21T04:29:22.748Z,52.80
2023-03-21T04:32:35.712Z,50.60
2023-03-21T04:35:20.588Z,50.00
2023-03-21T04:38:02.734Z,49.87
2023-03-21T04:40:45.068Z,50.97
2023-03-21T04:43:26.774Z,48.20
2023-03-21T04:46:08.415Z,50.30
2023-03-21T04:48:47.668Z,51.13
2023-03-21T04:51:25.945Z,51.87
2023-03-21T04:56:44.821Z,52.47
2023-03-21T04:59:30.685Z,48.53
2023-03-21T05:02:08.846Z,47.97
2023-03-21T05:04:51.097Z,47.33
2023-03-21T05:07:30.184Z,49.40
2023-03-21T05:10:11.357Z,47.20
2023-03-21T05:12:56.902Z,46.50
2023-03-21T05:15:39.148Z,48.23
2023-03-21T05:18:26.445Z,47.50
2023-03-21T05:21:23.215Z,47.20
2023-03-21T05:24:00.190Z,49.40
2023-03-21T05:26:45.467Z,51.47
2023-03-21T05:29:25.889Z,54.77
2023-03-21T05:32:14.504Z,53.83
2023-03-21T05:35:00.119Z,51.03
2023-03-21T05:37:40.117Z,52.93
2023-03-21T05:40:38.403Z,52.30
2023-03-21T05:43:15.934Z,50.80
2023-03-21T05:45:52.676Z,52.90
2023-03-21T05:48:30.195Z,52.73
2023-03-21T05:51:29.825Z,53.40
2023-03-21T05:54:18.112Z,51.67
2023-03-21T05:57:07.379Z,50.87
2023-03-21T06:00:01.895Z,52.23
2023-03-21T06:02:54.071Z,55.57
2023-03-21T06:05:56.499Z,55.17
2023-03-21T06:08:38.142Z,53.40
2023-03-21T06:11:36.089Z,54.27
2023-03-21T06:14:34.974Z,56.17
2023-03-21T06:17:44.273Z,51.07
2023-03-21T06:20:42.547Z,51.23
2023-03-21T06:23:27.716Z,52.90
2023-03-21T06:26:26.190Z,53.73
2023-03-21T06:29:06.777Z,54.03
2023-03-21T06:31:50.985Z,51.93
2023-03-21T06:34:34.507Z,53.67
2023-03-21T06:37:17.661Z,52.57
2023-03-21T06:40:04.496Z,53.70
2023-03-21T06:42:47.106Z,54.53
2023-03-21T06:46:11.577Z,55.03
2023-03-21T06:48:56.048Z,52.53
2023-03-21T06:51:39.156Z,51.80
2023-03-21T06:54:52.245Z,53.87
2023-03-21T06:57:36.188Z,51.30
2023-03-21T07:00:17.692Z,55.37
2023-03-21T07:03:02.136Z,54.40
2023-03-21T07:05:46.753Z,55.93
2023-03-21T07:08:24.671Z,52.87
2023-03-21T07:11:08.528Z,53.03
2023-03-21T07:13:50.246Z,54.03
2023-03-21T07:16:44.542Z,55.23
2023-03-21T07:19:25.029Z,54.20
2023-03-21T07:22:10.517Z,55.90
2023-03-21T07:25:02.386Z,56.50
2023-03-21T07:27:53.034Z,55.97
2023-03-21T07:30:35.092Z,55.70
2023-03-21T07:33:19.374Z,56.57
2023-03-21T07:35:59.196Z,57.03
2023-03-21T07:38:45.586Z,57.77
2023-03-21T07:41:27.492Z,56.80
2023-03-21T07:44:26.581Z,56.83
2023-03-21T07:47:15.801Z,56.63
2023-03-21T07:50:14.623Z,58.67
2023-03-21T07:53:07.987Z,54.57
2023-03-21T07:55:46.135Z,57.90
2023-03-21T07:58:33.111Z,57.57
2023-03-21T08:01:30.284Z,57.73
2023-03-21T08:04:24.069Z,56.03
2023-03-21T08:07:11.065Z,55.57
2023-03-21T08:10:01.359Z,56.70
2023-03-21T08:12:40.695Z,61.33
2023-03-21T08:15:21.535Z,59.43
2023-03-21T08:18:12.317Z,57.83
2023-03-21T08:21:27.467Z,57.87
2023-03-21T08:24:38.267Z,57.37
2023-03-21T08:27:15.274Z,57.57
2023-03-21T08:29:55.079Z,56.90
2023-03-21T08:32:37.289Z,57.07
2023-03-21T08:35:24.888Z,57.43
2023-03-21T08:38:05.704Z,57.47
2023-03-21T08:40:51.411Z,58.60
2023-03-21T08:43:31.565Z,57.63
2023-03-21T08:46:23.131Z,58.37
2023-03-21T08:49:04.498Z,57.87
2023-03-21T08:51:49.223Z,57.53
2023-03-21T08:54:31.331Z,56.67
2023-03-21T08:57:13.337Z,56.37
2023-03-21T08:59:50.730Z,57.60
2023-03-21T09:02:29.168Z,57.90
2023-03-21T09:05:13.543Z,59.10
2023-03-21T09:07:53.020Z,58.00
2023-03-21T09:10:38.264Z,56.63
2023-03-21T09:13:19.539Z,58.57
2023-03-21T09:15:58.343Z,57.77
2023-03-21T09:18:46.756Z,57.73
2023-03-21T09:21:25.179Z,59.77
2023-03-21T09:24:07.711Z,56.43
2023-03-21T09:26:45.442Z,57.63
2023-03-21T09:29:25.392Z,59.13
2023-03-21T09:32:07.760Z,63.83
2023-03-21T09:34:44.427Z,59.70
2023-03-21T09:37:22.985Z,61.93
2023-03-21T09:39:59.707Z,59.30
2023-03-21T09:42:49.118Z,60.37
2023-03-21T09:45:36.994Z,59.23
2023-03-21T09:48:33.512Z,60.10
2023-03-21T09:51:11.103Z,59.47
2023-03-21T09:53:54.926Z,59.50
2023-03-21T09:56:35.913Z,58.80
2023-03-21T09:59:14.566Z,59.27
2023-03-21T10:01:59.257Z,59.13
2023-03-21T10:04:47.984Z,57.00
2023-03-21T10:07:32.437Z,56.87
2023-03-21T10:10:11.873Z,59.93
2023-03-21T10:12:49.574Z,58.43
2023-03-21T10:15:28.304Z,59.70
2023-03-21T10:18:22.949Z,59.10
2023-03-21T10:21:00.226Z,58.63
2023-03-21T10:23:37.724Z,58.73
2023-03-21T10:26:21.102Z,58.87
2023-03-21T10:29:00.990Z,59.93
2023-03-21T10:31:40.345Z,61.00
2023-03-21T10:34:26.269Z,59.53
2023-03-21T10:37:02.523Z,59.33
2023-03-21T10:39:48.421Z,60.63
2023-03-21T10:42:31.118Z,59.60
2023-03-21T10:45:09.506Z,60.13
2023-03-21T10:48:20.647Z,59.10
2023-03-21T10:51:09.010Z,59.33
2023-03-21T10:53:53.441Z,60.83
2023-03-21T10:56:38.594Z,60.80
2023-03-21T10:59:25.348Z,60.23
2023-03-21T11:02:04.259Z,59.57
2023-03-21T11:04:43.771Z,61.83
2023-03-21T11:07:28.741Z,62.33
2023-03-21T11:10:28.573Z,64.43
2023-03-21T11:13:16.336Z,63.63
2023-03-21T11:16:02.116Z,63.97
2023-03-21T11:18:46.316Z,64.00
2023-03-21T11:21:35.496Z,65.23
2023-03-21T11:24:23.995Z,62.57
2023-03-21T11:27:09.175Z,63.23
2023-03-21T11:29:50.838Z,63.67
2023-03-21T11:32:36.768Z,66.03
2023-03-21T11:35:22.636Z,67.03
2023-03-21T11:38:04.867Z,64.03
2023-03-21T11:41:11.990Z,65.43
2023-03-21T11:44:04.528Z,65.40
2023-03-21T11:46:51.778Z,65.33
2023-03-21T11:49:31.146Z,65.70
2023-03-21T11:52:27.666Z,65.20
2023-03-21T11:55:40.589Z,67.63
2023-03-21T11:58:45.728Z,65.90
2023-03-21T12:01:35.913Z,65.83
2023-03-21T12:04:33.491Z,66.90
2023-03-21T12:07:22.271Z,67.73
2023-03-21T12:10:13.943Z,67.30
2023-03-21T12:13:07.982Z,69.43
2023-03-21T12:16:00.891Z,67.73
2023-03-21T12:19:04.695Z,69.67
2023-03-21T12:21:56.021Z,70.63
2023-03-21T12:24:42.494Z,71.70
2023-03-21T12:27:46.312Z,67.63
2023-03-21T12:30:41.495Z,67.83
2023-03-21T12:33:50.091Z,71.40
2023-03-21T12:36:50.983Z,69.57
2023-03-21T12:39:36.106Z,69.20
2023-03-21T12:42:41.636Z,70.43
2023-03-21T12:45:47.314Z,68.40
2023-03-21T12:48:49.520Z,71.23
2023-03-21T12:51:40.889Z,67.33
2023-03-21T12:54:39.597Z,70.40
2023-03-21T12:57:19.992Z,71.40
2023-03-21T13:00:16.203Z,70.23
2023-03-21T13:03:00.594Z,67.80
2023-03-21T13:05:39.822Z,67.50
2023-03-21T13:08:31.054Z,66.87
2023-03-21T13:11:13.869Z,70.47
2023-03-21T13:13:58.443Z,70.97
2023-03-21T13:17:01.286Z,70.10
2023-03-21T13:19:44.721Z,69.03
2023-03-21T13:22:32.862Z,71.60
2023-03-21T13:25:34.025Z,69.67
2023-03-21T13:28:22.378Z,70.60
2023-03-21T13:31:01.521Z,70.30
2023-03-21T13:33:48.677Z,70.33
2023-03-21T13:36:37.652Z,69.83
2023-03-21T13:39:26.859Z,68.23
2023-03-21T13:42:35.270Z,69.30
2023-03-21T13:45:33.960Z,67.33
2023-03-21T13:48:58.518Z,68.73
2023-03-21T13:52:05.744Z,68.93
2023-03-21T13:55:05.380Z,67.03
2023-03-21T13:57:48.154Z,71.07
2023-03-21T14:00:45.075Z,69.47
2023-03-21T14:03:29.260Z,68.70
2023-03-21T14:06:10.957Z,68.03
2023-03-21T14:09:00.141Z,68.40
2023-03-21T14:11:41.967Z,66.97
2023-03-21T14:14:28.345Z,68.77
2023-03-21T14:17:08.710Z,65.87
2023-03-21T14:19:49.032Z,67.07
2023-03-21T14:22:33.828Z,65.73
2023-03-21T14:25:14.465Z,69.00
2023-03-21T14:27:59.249Z,69.50
2023-03-21T14:30:45.312Z,71.13
2023-03-21T14:33:37.496Z,71.03
2023-03-21T14:36:21.630Z,70.43
2023-03-21T14:39:20.362Z,72.50
2023-03-21T14:42:01.182Z,74.10
2023-03-21T14:44:54.817Z,75.50
2023-03-21T14:47:40.037Z,79.00
2023-03-21T14:50:33.170Z,80.77
2023-03-21T14:53:17.324Z,82.13
2023-03-21T14:56:06.177Z,80.73
2023-03-21T14:58:49.168Z,83.57
2023-03-21T15:01:34.511Z,83.13
2023-03-21T15:04:21.532Z,84.07
2023-03-21T15:07:11.219Z,87.87
2023-03-21T15:09:59.404Z,83.87
2023-03-21T15:12:36.541Z,85.17
2023-03-21T15:15:20.450Z,87.23
2023-03-21T15:17:58.463Z,87.77
2023-03-21T15:20:47.414Z,85.77
2023-03-21T15:23:42.231Z,89.53
2023-03-21T15:26:25.493Z,85.30
2023-03-21T15:29:09.192Z,89.07
2023-03-21T15:31:57.425Z,87.20
2023-03-21T15:34:51.723Z,88.03
2023-03-21T15:37:35.440Z,85.47
2023-03-21T15:40:32.000Z,84.10
2023-03-21T15:43:30.551Z,87.17
2023-03-21T15:46:23.867Z,86.63
2023-03-21T15:49:31.896Z,84.63
2023-03-21T15:52:23.420Z,84.93
2023-03-21T15:55:04.367Z,84.70
2023-03-21T15:57:57.094Z,87.13
2023-03-21T16:00:54.342Z,86.83
2023-03-21T16:03:41.950Z,89.43
2023-03-21T16:06:29.872Z,86.43
2023-03-21T16:09:29.538Z,89.00
2023-03-21T16:12:21.966Z,86.43
2023-03-21T16:15:07.589Z,88.47
2023-03-21T16:17:58.029Z,86.93
2023-03-21T16:20:39.609Z,87.23
2023-03-21T16:23:18.636Z,85.90
2023-03-21T16:25:59.910Z,86.03
2023-03-21T16:28:45.955Z,84.00
2023-03-21T16:31:30.916Z,86.13
2023-03-21T16:34:08.595Z,83.07
2023-03-21T16:36:48.959Z,84.07
2023-03-21T16:39:35.811Z,83.77
2023-03-21T16:42:21.469Z,86.20
2023-03-21T16:45:30.159Z,86.07
2023-03-21T16:48:17.443Z,83.03
2023-03-21T16:50:54.686Z,83.00
2023-03-21T16:53:40.010Z,83.23
2023-03-21T16:56:22.103Z,82.67
2023-03-21T16:59:13.496Z,84.00
2023-03-21T17:01:56.701Z,82.37
2023-03-21T17:04:37.231Z,82.47
2023-03-21T17:07:16.935Z,82.93
2023-03-21T17:09:52.588Z,83.17
2023-03-21T17:12:29.444Z,80.00
2023-03-21T17:15:05.451Z,80.13
2023-03-21T17:17:44.981Z,78.20
2023-03-21T17:20:28.213Z,77.53
2023-03-21T17:23:04.963Z,78.10
2023-03-21T17:25:43.301Z,73.50
2023-03-21T17:28:19.330Z,72.53
2023-03-21T17:30:55.164Z,74.33
2023-03-21T17:33:32.729Z,70.13
2023-03-21T17:36:11.224Z,64.80
2023-03-21T17:38:47.875Z,63.13
2023-03-21T17:41:27.118Z,60.60
2023-03-21T17:44:03.454Z,61.97
2023-03-21T17:46:44.235Z,60.43
2023-03-21T17:49:23.104Z,60.57
2023-03-21T17:52:02.941Z,62.47
2023-03-21T17:54:40.146Z,62.80
2023-03-21T17:57:22.528Z,63.23
2023-03-21T17:59:59.798Z,62.43
2023-03-21T18:02:47.161Z,61.30
2023-03-21T18:05:23.910Z,60.20
2023-03-21T18:08:12.783Z,58.53
2023-03-21T18:10:49.080Z,57.27
2023-03-21T18:13:31.565Z,53.40
2023-03-21T18:16:07.222Z,54.97
2023-03-21T18:18:49.986Z,55.30
2023-03-21T18:21:32.891Z,56.53
2023-03-21T18:24:15.800Z,55.10
2023-03-21T18:26:53.649Z,55.60
2023-03-21T18:30:22.803Z,55.33
2023-03-21T18:32:29.825Z,55.63
2023-03-21T18:35:06.157Z,54.30
2023-03-21T18:37:42.175Z,52.63
2023-03-21T18:40:23.774Z,53.93
2023-03-21T18:45:56.542Z,53.17
2023-03-21T18:48:34.344Z,54.23
2023-03-21T18:51:11.594Z,52.30
2023-03-21T18:53:47.482Z,54.10
2023-03-21T18:59:23.127Z,52.83
2023-03-21T19:01:58.842Z,52.23
2023-03-21T19:04:34.928Z,53.13
2023-03-21T19:07:15.442Z,53.53
2023-03-21T19:10:17.361Z,52.33
2023-03-21T19:12:49.647Z,53.63
2023-03-21T19:15:27.145Z,50.73
2023-03-21T19:21:00.419Z,48.37
2023-03-21T19:24:16.305Z,46.47
2023-03-21T19:26:35.512Z,44.07
2023-03-21T19:29:16.244Z,45.93
2023-03-21T19:31:52.730Z,45.27
2023-03-21T19:34:28.514Z,46.77
2023-03-21T19:37:04.530Z,46.33
2023-03-21T19:39:41.987Z,47.80
2023-03-21T19:42:17.811Z,46.13
2023-03-21T19:44:56.551Z,46.53
2023-03-21T19:47:31.292Z,44.93
2023-03-21T19:53:01.778Z,45.80
2023-03-21T19:55:38.396Z,45.57
2023-03-21T19:58:13.989Z,42.33
2023-03-21T20:00:51.234Z,42.27
2023-03-21T20:03:26.711Z,42.13
2023-03-21T20:06:09.022Z,38.23
2023-03-21T20:09:13.737Z,41.93
2023-03-21T20:11:37.996Z,38.53
2023-03-21T20:14:12.885Z,36.80
2023-03-21T20:16:49.561Z,38.97
2023-03-21T20:19:26.383Z,33.27
2023-03-21T20:22:02.844Z,31.07
2023-03-21T20:24:39.052Z,34.73
2023-03-21T20:27:14.651Z,34.63
2023-03-21T20:30:08.621Z,36.50
2023-03-21T20:32:47.668Z,34.47
2023-03-21T20:35:47.979Z,35.63
2023-03-21T20:38:22.091Z,35.80
2023-03-21T20:40:56.573Z,36.63
2023-03-21T20:46:27.057Z,33.83
2023-03-21T20:49:07.393Z,32.93
2023-03-21T20:54:36.506Z,32.27
2023-03-21T20:57:11.726Z,32.43
2023-03-21T20:59:47.090Z,32.23
2023-03-21T21:02:22.783Z,31.73
2023-03-21T21:05:25.075Z,29.27
2023-03-21T21:07:54.060Z,30.00
2023-03-21T21:10:29.708Z,32.23
2023-03-21T21:13:04.837Z,29.63
2023-03-21T21:15:40.142Z,29.10
2023-03-21T21:18:15.108Z,29.73
2023-03-21T21:20:57.633Z,28.53
2023-03-21T21:23:32.833Z,28.87
2023-03-21T21:26:08.916Z,28.50
2023-03-21T21:28:44.896Z,30.30
2023-03-21T21:31:21.698Z,30.07
2023-03-21T21:33:57.458Z,30.20
2023-03-21T21:36:35.073Z,29.83
2023-03-21T21:39:10.769Z,30.73
2023-03-21T21:41:45.621Z,32.50
2023-03-21T21:44:20.973Z,33.70
2023-03-21T21:46:56.599Z,32.27
2023-03-21T21:49:32.944Z,31.57
2023-03-21T21:52:10.379Z,30.93
2023-03-21T21:54:47.806Z,32.57
2023-03-21T21:57:24.208Z,30.43
2023-03-21T22:00:00.057Z,30.77
2023-03-21T22:02:38.237Z,30.73
2023-03-21T22:05:14.968Z,31.13
2023-03-21T22:07:53.361Z,33.07
2023-03-21T22:10:28.972Z,29.73
2023-03-21T22:13:04.290Z,31.60
2023-03-21T22:15:39.481Z,32.30
2023-03-21T22:18:14.983Z,32.67
2023-03-21T22:20:50.853Z,33.47
2023-03-21T22:23:29.660Z,32.63
2023-03-21T22:26:05.191Z,34.70
2023-03-21T22:28:43.041Z,32.87
2023-03-21T22:31:19.927Z,32.70
2023-03-21T22:33:55.291Z,33.70
2023-03-21T22:36:30.403Z,32.47
2023-03-21T22:39:08.186Z,35.80
2023-03-21T22:41:43.609Z,34.83
2023-03-21T22:44:19.035Z,35.30
2023-03-21T22:46:54.079Z,37.30
2023-03-21T22:49:29.302Z,35.20
2023-03-21T22:52:06.349Z,37.33
2023-03-21T22:54:43.996Z,37.77
2023-03-21T22:57:21.492Z,38.30
2023-03-21T22:59:56.713Z,37.87
2023-03-21T23:02:32.797Z,39.67
2023-03-21T23:05:11.792Z,40.03
2023-03-21T23:07:47.942Z,39.77
2023-03-21T23:10:26.161Z,40.60
2023-03-21T23:13:01.471Z,39.73
2023-03-21T23:15:36.708Z,39.57
2023-03-21T23:18:12.944Z,41.80
2023-03-21T23:20:48.874Z,43.27
2023-03-21T23:23:24.335Z,42.10
2023-03-21T23:26:05.345Z,40.87
2023-03-21T23:28:41.169Z,40.33
2023-03-21T23:31:21.552Z,41.60
2023-03-21T23:33:57.727Z,39.40
2023-03-21T23:36:33.589Z,42.97
2023-03-21T23:39:09.482Z,39.10
2023-03-21T23:41:51.726Z,37.03
2023-03-21T23:44:31.194Z,39.10
2023-03-21T23:47:07.476Z,36.43
2023-03-21T23:49:46.855Z,36.90
2023-03-21T23:52:31.305Z,36.73
2023-03-21T23:55:07.327Z,34.60
2023-03-21T23:58:00.467Z,35.53
